Time;durP1;ratioP1;P1;durP2;ratioP2;P2;SDS_P1;SDS_P2;PMS_P1;PMS_P2;Temp;Humidity;BMP_temperature;BMP_pressure;BME280_temperature;BME280_humidity;BME280_pressure;Samples;Min_cycle;Max_cycle;Signal;HPM_P1;HPM_P2
2022/07/17 00:00:45;;;;;;;7.25;1.02;;;10.40;99.90;;;;;;5009604;28;20045;-79
2022/07/17 00:03:15;;;;;;;4.43;0.88;;;10.40;99.90;;;;;;4999357;28;20053;-79
2022/07/17 00:05:41;;;;;;;1.77;0.57;;;10.50;99.90;;;;;;4993924;28;20107;-80
2022/07/17 00:08:09;;;;;;;3.13;1.13;;;10.40;99.90;;;;;;5023206;28;20052;-78
2022/07/17 00:10:36;;;;;;;3.00;1.08;;;10.40;99.90;;;;;;5008824;28;20133;-80
2022/07/17 00:13:03;;;;;;;8.73;1.40;;;10.40;99.90;;;;;;5011213;28;20033;-80
2022/07/17 00:15:29;;;;;;;5.05;0.80;;;10.50;99.90;;;;;;5018415;28;20949;-80
2022/07/17 00:17:55;;;;;;;5.18;0.90;;;10.60;99.90;;;;;;5025585;28;20629;-79
2022/07/17 00:20:21;;;;;;;6.78;1.02;;;10.60;99.90;;;;;;5026893;28;20052;-76
2022/07/17 00:22:47;;;;;;;2.22;0.70;;;10.50;99.90;;;;;;5018638;28;20081;-79
2022/07/17 00:25:13;;;;;;;2.75;0.80;;;10.50;99.90;;;;;;5026566;28;20061;-79
2022/07/17 00:27:39;;;;;;;2.95;1.05;;;10.50;99.90;;;;;;5007428;28;20034;-80
2022/07/17 00:30:06;;;;;;;2.92;0.80;;;10.40;99.90;;;;;;4996322;28;20103;-79
2022/07/17 00:32:31;;;;;;;5.00;1.00;;;10.40;99.90;;;;;;5010591;28;20045;-80
2022/07/17 00:34:57;;;;;;;4.35;1.02;;;10.40;99.90;;;;;;5009329;28;20133;-80
2022/07/17 00:37:23;;;;;;;3.75;1.00;;;10.30;99.90;;;;;;5018876;28;20037;-79
2022/07/17 00:39:48;;;;;;;2.10;1.10;;;10.30;99.90;;;;;;5012708;28;20091;-79
2022/07/17 00:42:15;;;;;;;3.78;1.23;;;10.30;99.90;;;;;;5009298;28;20045;-80
2022/07/17 00:44:42;;;;;;;2.42;0.80;;;10.30;99.90;;;;;;5028635;28;20052;-80
2022/07/17 00:47:19;;;;;;;2.47;1.00;;;10.20;99.90;;;;;;4998733;28;20050;-80
2022/07/17 00:49:46;;;;;;;2.75;1.13;;;10.10;99.90;;;;;;5008051;28;20076;-78
2022/07/17 00:52:13;;;;;;;1.77;0.60;;;10.00;99.90;;;;;;5017383;28;20187;-80
2022/07/17 00:54:40;;;;;;;3.00;0.90;;;10.00;99.90;;;;;;5027756;28;20176;-79
2022/07/17 00:57:08;;;;;;;3.00;0.80;;;10.00;99.90;;;;;;5013134;28;20045;-80
2022/07/17 00:59:34;;;;;;;3.78;1.20;;;9.90;99.90;;;;;;5026632;28;20041;-79
2022/07/17 01:02:05;;;;;;;3.65;1.13;;;9.90;99.90;;;;;;5005547;28;20044;-80
2022/07/17 01:04:32;;;;;;;2.10;0.60;;;9.90;99.90;;;;;;5009352;28;20080;-76
2022/07/17 01:06:59;;;;;;;3.28;0.82;;;9.80;99.90;;;;;;5025831;28;20053;-77
2022/07/17 01:09:25;;;;;;;4.18;1.40;;;9.80;99.90;;;;;;5008857;28;20054;-77
2022/07/17 01:11:50;;;;;;;4.20;1.55;;;9.70;99.90;;;;;;5009845;28;20045;-79
2022/07/17 01:14:16;;;;;;;2.97;1.10;;;9.60;99.90;;;;;;5027216;28;20654;-79
2022/07/17 01:16:43;;;;;;;2.30;1.23;;;9.70;99.90;;;;;;5011164;28;20044;-80
2022/07/17 01:19:10;;;;;;;2.65;1.10;;;9.70;99.90;;;;;;5005722;28;20044;-79
2022/07/17 01:21:44;;;;;;;4.40;1.17;;;9.70;99.90;;;;;;5010935;28;20051;-77
2022/07/17 01:24:10;;;;;;;5.15;1.23;;;9.70;99.90;;;;;;5010720;28;20115;-76
2022/07/17 01:26:36;;;;;;;7.10;2.08;;;9.80;99.90;;;;;;5028236;28;20029;-79
2022/07/17 01:29:02;;;;;;;5.28;2.00;;;9.80;99.90;;;;;;5015347;28;20042;-78
2022/07/17 01:31:28;;;;;;;2.75;1.33;;;9.90;99.90;;;;;;5008652;28;20057;-79
2022/07/17 01:33:53;;;;;;;2.63;1.63;;;10.00;99.90;;;;;;5009656;28;20037;-79
2022/07/17 01:36:23;;;;;;;2.20;1.20;;;10.00;99.90;;;;;;5009969;28;20130;-79
2022/07/17 01:38:49;;;;;;;4.55;1.70;;;10.00;99.90;;;;;;5011545;28;20049;-77
2022/07/17 01:41:15;;;;;;;5.72;1.92;;;9.90;99.90;;;;;;5028784;28;20045;-80
2022/07/17 01:43:41;;;;;;;5.07;1.92;;;10.00;99.90;;;;;;5017544;28;20037;-78
2022/07/17 01:46:06;;;;;;;4.95;1.80;;;10.10;99.90;;;;;;5022989;28;20109;-80
2022/07/17 01:48:32;;;;;;;5.22;2.75;;;10.20;99.90;;;;;;5031993;28;20096;-80
2022/07/17 01:50:57;;;;;;;4.50;1.25;;;10.20;99.90;;;;;;5008625;28;20076;-79
2022/07/17 01:53:23;;;;;;;3.53;1.23;;;10.30;99.90;;;;;;5025716;28;20036;-79
2022/07/17 01:55:49;;;;;;;3.97;1.45;;;10.20;99.90;;;;;;5008967;28;20111;-79
2022/07/17 01:58:14;;;;;;;4.30;1.30;;;10.00;99.90;;;;;;5016809;28;20046;-79
2022/07/17 02:00:41;;;;;;;3.60;1.73;;;10.00;99.90;;;;;;5008003;28;20037;-79
2022/07/17 02:03:06;;;;;;;4.50;1.77;;;9.90;99.90;;;;;;5024949;28;20820;-80
2022/07/17 02:05:32;;;;;;;3.42;1.30;;;9.80;99.90;;;;;;5027747;28;20038;-79
2022/07/17 02:07:57;;;;;;;4.75;1.50;;;9.80;99.90;;;;;;5008004;28;20042;-78
2022/07/17 02:10:23;;;;;;;3.80;2.40;;;9.70;99.90;;;;;;5012586;28;20101;-80
2022/07/17 02:12:49;;;;;;;5.55;1.58;;;9.60;99.90;;;;;;5010559;28;20038;-79
2022/07/17 02:15:15;;;;;;;6.10;1.70;;;9.50;99.90;;;;;;5020281;28;20499;-79
2022/07/17 02:17:42;;;;;;;4.35;2.38;;;9.50;99.90;;;;;;5013707;28;20049;-79
2022/07/17 02:20:08;;;;;;;3.88;1.42;;;9.50;99.90;;;;;;5005967;28;20086;-78
2022/07/17 02:22:35;;;;;;;3.00;1.20;;;9.50;99.90;;;;;;4993971;28;20049;-78
2022/07/17 02:25:01;;;;;;;5.13;1.95;;;9.40;99.90;;;;;;5025780;28;20068;-80
2022/07/17 02:27:26;;;;;;;2.88;1.80;;;9.40;99.90;;;;;;4993441;28;20041;-78
2022/07/17 02:29:52;;;;;;;4.05;1.88;;;9.40;99.90;;;;;;5007977;28;20037;-79
2022/07/17 02:32:17;;;;;;;5.95;1.98;;;9.40;99.90;;;;;;5013504;28;20052;-79
2022/07/17 02:34:43;;;;;;;2.80;2.05;;;9.40;99.90;;;;;;5010184;28;20152;-79
2022/07/17 02:37:08;;;;;;;3.45;1.73;;;9.40;99.90;;;;;;5012994;28;20037;-78
2022/07/17 02:39:34;;;;;;;3.15;1.35;;;9.40;99.90;;;;;;5011748;28;20104;-80
2022/07/17 02:41:59;;;;;;;3.95;1.83;;;9.40;99.90;;;;;;5025321;28;20041;-78
2022/07/17 02:44:25;;;;;;;4.18;1.77;;;9.40;99.90;;;;;;5003493;28;20044;-79
2022/07/17 02:46:50;;;;;;;6.07;2.33;;;9.30;99.90;;;;;;5010850;28;20045;-78
2022/07/17 02:49:16;;;;;;;5.45;2.05;;;9.30;99.90;;;;;;5008596;28;20073;-79
2022/07/17 02:51:41;;;;;;;5.28;1.80;;;9.30;99.90;;;;;;4996191;28;20045;-77
2022/07/17 02:54:07;;;;;;;5.43;1.83;;;9.30;99.90;;;;;;5017187;28;20042;-77
2022/07/17 02:56:33;;;;;;;3.50;1.58;;;10.00;99.90;;;;;;4997363;28;20049;-78
2022/07/17 02:58:58;;;;;;;3.30;1.70;;;9.40;99.90;;;;;;5024311;28;20037;-79
2022/07/17 03:01:24;;;;;;;4.93;2.35;;;9.40;99.90;;;;;;4993395;28;20546;-78
2022/07/17 03:03:49;;;;;;;2.30;1.50;;;9.30;99.90;;;;;;5010231;28;20048;-78
2022/07/17 03:06:15;;;;;;;2.97;1.85;;;9.40;99.90;;;;;;5010976;28;20050;-80
2022/07/17 03:08:41;;;;;;;4.28;1.55;;;9.40;99.90;;;;;;5010190;28;20065;-79
2022/07/17 03:11:06;;;;;;;2.80;1.63;;;9.40;99.90;;;;;;5021067;28;20510;-77
2022/07/17 03:13:32;;;;;;;2.22;1.67;;;9.40;99.90;;;;;;5007689;28;20040;-78
2022/07/17 03:15:57;;;;;;;2.00;1.20;;;9.30;99.90;;;;;;5007626;28;20042;-79
2022/07/17 03:18:23;;;;;;;2.13;0.70;;;9.30;99.90;;;;;;4996576;28;20037;-80
2022/07/17 03:20:49;;;;;;;4.68;1.40;;;9.30;99.90;;;;;;5016143;28;20108;-78
2022/07/17 03:23:14;;;;;;;5.63;1.60;;;9.30;99.90;;;;;;5009340;28;20041;-78
2022/07/17 03:25:40;;;;;;;15.43;2.15;;;9.30;99.90;;;;;;5022003;28;20548;-77
2022/07/17 03:28:05;;;;;;;7.03;2.13;;;9.30;99.90;;;;;;5026512;28;20634;-79
2022/07/17 03:30:31;;;;;;;8.90;2.47;;;9.30;99.90;;;;;;5013019;28;20059;-77
2022/07/17 03:32:57;;;;;;;4.45;1.92;;;9.30;99.90;;;;;;5005692;28;20508;-78
2022/07/17 03:35:22;;;;;;;3.70;2.08;;;9.20;99.90;;;;;;5007872;28;20784;-79
2022/07/17 03:37:48;;;;;;;2.17;1.63;;;9.20;99.90;;;;;;5005120;28;20048;-79
2022/07/17 03:40:13;;;;;;;5.65;2.10;;;9.20;99.90;;;;;;5024301;28;20068;-79
2022/07/17 03:42:39;;;;;;;3.60;1.63;;;9.20;99.90;;;;;;5013210;28;20057;-78
2022/07/17 03:45:05;;;;;;;6.10;1.63;;;9.20;99.90;;;;;;5014376;28;21313;-79
2022/07/17 03:47:30;;;;;;;5.03;1.80;;;9.20;99.90;;;;;;5023484;28;20046;-80
2022/07/17 03:49:56;;;;;;;3.53;1.80;;;9.20;99.90;;;;;;5007457;28;20052;-79
2022/07/17 03:52:22;;;;;;;3.00;1.73;;;9.20;99.90;;;;;;5010152;28;20037;-78
2022/07/17 03:54:47;;;;;;;3.25;1.25;;;9.20;99.90;;;;;;5007660;28;20065;-79
2022/07/17 03:57:13;;;;;;;3.15;1.90;;;9.40;99.90;;;;;;5006007;28;20119;-77
2022/07/17 03:59:38;;;;;;;4.00;1.80;;;9.40;99.90;;;;;;5003985;28;20041;-79
2022/07/17 04:02:04;;;;;;;2.53;1.90;;;9.50;99.90;;;;;;5008870;28;20042;-78
2022/07/17 04:04:29;;;;;;;7.13;2.00;;;9.60;99.90;;;;;;5011529;28;21115;-80
2022/07/17 04:06:55;;;;;;;13.85;2.00;;;9.70;99.90;;;;;;5020697;28;20032;-79
2022/07/17 04:09:20;;;;;;;4.57;2.20;;;9.70;99.90;;;;;;5008373;28;20049;-79
2022/07/17 04:11:46;;;;;;;1.58;1.48;;;9.70;99.90;;;;;;4994879;28;20042;-78
2022/07/17 04:14:12;;;;;;;4.28;1.75;;;9.70;99.90;;;;;;4997357;28;20096;-79
2022/07/17 04:16:37;;;;;;;4.93;1.70;;;9.80;99.90;;;;;;5022374;28;20064;-78
2022/07/17 04:19:03;;;;;;;3.45;1.40;;;9.90;99.90;;;;;;5012313;28;20045;-79
2022/07/17 04:21:28;;;;;;;5.03;1.30;;;10.00;99.90;;;;;;5007433;28;20045;-77
2022/07/17 04:23:54;;;;;;;4.38;1.70;;;10.00;99.90;;;;;;5022873;28;20104;-79
2022/07/17 04:26:19;;;;;;;5.07;1.77;;;10.10;99.90;;;;;;5015367;28;20095;-79
2022/07/17 04:28:46;;;;;;;3.75;2.30;;;10.10;99.90;;;;;;4992438;28;20045;-78
2022/07/17 04:31:11;;;;;;;5.90;2.75;;;10.20;99.90;;;;;;5012515;28;20099;-79
2022/07/17 04:33:37;;;;;;;5.50;1.95;;;10.30;99.90;;;;;;5007513;28;20108;-79
2022/07/17 04:36:03;;;;;;;5.20;1.90;;;10.50;99.90;;;;;;5005020;28;20121;-79
2022/07/17 04:38:29;;;;;;;4.57;1.90;;;10.50;99.90;;;;;;5008034;28;20045;-79
2022/07/17 04:40:54;;;;;;;2.28;1.73;;;10.60;99.90;;;;;;5005293;28;20408;-79
2022/07/17 04:43:20;;;;;;;4.65;1.88;;;10.70;99.90;;;;;;5025034;28;20886;-79
2022/07/17 04:45:45;;;;;;;3.53;2.08;;;10.80;99.90;;;;;;5022270;28;20128;-79
2022/07/17 04:48:11;;;;;;;4.32;2.10;;;10.90;99.90;;;;;;4993647;28;20042;-79
2022/07/17 04:50:36;;;;;;;3.10;1.60;;;10.90;99.90;;;;;;5023769;28;20563;-79
2022/07/17 04:53:02;;;;;;;4.90;2.67;;;11.10;99.90;;;;;;5007595;28;20689;-79
2022/07/17 04:55:28;;;;;;;4.15;1.30;;;11.40;99.90;;;;;;5004989;28;20049;-77
2022/07/17 04:57:54;;;;;;;3.78;1.30;;;11.60;99.90;;;;;;5024415;28;20064;-78
2022/07/17 05:00:20;;;;;;;5.13;1.60;;;11.70;99.90;;;;;;5007384;28;20053;-80
2022/07/17 05:02:45;;;;;;;3.00;1.40;;;11.70;99.90;;;;;;5011982;28;20056;-80
2022/07/17 05:05:11;;;;;;;6.78;1.75;;;11.70;99.90;;;;;;5023261;28;20045;-79
2022/07/17 05:07:37;;;;;;;4.45;1.58;;;11.70;99.90;;;;;;5007482;28;20046;-78
2022/07/17 05:10:04;;;;;;;4.57;1.45;;;11.80;99.90;;;;;;5007922;28;20037;-77
2022/07/17 05:12:29;;;;;;;7.05;1.35;;;11.80;99.90;;;;;;5009587;28;20041;-80
2022/07/17 05:14:55;;;;;;;3.63;1.63;;;11.90;99.90;;;;;;5010919;28;20048;-79
2022/07/17 05:17:20;;;;;;;6.45;1.17;;;11.90;99.90;;;;;;5016543;28;20045;-77
2022/07/17 05:19:46;;;;;;;3.88;1.30;;;11.90;99.90;;;;;;5024229;28;20037;-80
2022/07/17 05:22:12;;;;;;;5.10;1.35;;;12.00;99.90;;;;;;5010822;28;20037;-80
2022/07/17 05:24:37;;;;;;;3.33;1.30;;;12.00;99.90;;;;;;5008926;28;20084;-79
2022/07/17 05:27:03;;;;;;;3.08;1.45;;;12.10;99.90;;;;;;5009440;28;20047;-79
2022/07/17 05:29:28;;;;;;;2.53;1.20;;;12.10;99.90;;;;;;5009602;28;20087;-78
2022/07/17 05:31:54;;;;;;;3.95;1.60;;;12.20;99.90;;;;;;5005628;28;20037;-78
2022/07/17 05:34:20;;;;;;;5.45;1.20;;;12.20;99.90;;;;;;5028738;28;20099;-80
2022/07/17 05:36:46;;;;;;;4.72;1.83;;;12.30;99.90;;;;;;5011248;28;20465;-78
2022/07/17 05:39:11;;;;;;;3.65;1.50;;;12.20;99.90;;;;;;5021228;28;20366;-77
2022/07/17 05:41:38;;;;;;;6.78;1.90;;;12.30;99.90;;;;;;5006002;28;20042;-80
2022/07/17 05:44:04;;;;;;;4.15;1.02;;;12.50;99.90;;;;;;5008000;28;20042;-78
2022/07/17 05:46:30;;;;;;;5.88;1.10;;;12.50;99.90;;;;;;4993625;28;20116;-79
2022/07/17 05:48:55;;;;;;;5.10;1.23;;;12.50;99.90;;;;;;5005462;28;20052;-80
2022/07/17 05:51:21;;;;;;;5.85;1.40;;;12.60;99.90;;;;;;5001642;28;20100;-80
2022/07/17 05:53:47;;;;;;;4.93;1.05;;;12.70;99.90;;;;;;5006214;28;20041;-81
2022/07/17 05:56:12;;;;;;;5.10;1.40;;;12.80;99.90;;;;;;5003848;28;20067;-80
2022/07/17 05:58:38;;;;;;;5.45;1.70;;;12.80;99.90;;;;;;5007897;28;20041;-81
2022/07/17 06:01:04;;;;;;;4.85;1.42;;;12.90;99.90;;;;;;4990478;28;20045;-81
2022/07/17 06:03:30;;;;;;;5.63;1.25;;;13.10;99.90;;;;;;5009199;28;20048;-81
2022/07/17 06:05:56;;;;;;;2.90;1.05;;;13.20;99.90;;;;;;5022962;28;20042;-80
2022/07/17 06:08:21;;;;;;;3.63;0.93;;;13.40;99.90;;;;;;5016309;28;20044;-79
2022/07/17 06:10:47;;;;;;;3.42;0.93;;;13.60;99.90;;;;;;5013581;28;20049;-80
2022/07/17 06:13:18;;;;;;;2.38;1.17;;;13.80;99.90;;;;;;5019265;28;20051;-82
2022/07/17 06:15:45;;;;;;;7.68;1.10;;;14.10;99.90;;;;;;5003582;28;20648;-81
2022/07/17 06:18:12;;;;;;;3.70;1.05;;;14.70;99.90;;;;;;4991053;28;20072;-81
2022/07/17 06:20:45;;;;;;;3.10;0.98;;;15.50;99.90;;;;;;5005611;28;20053;-82
2022/07/17 06:23:15;;;;;;;2.67;0.80;;;16.10;99.90;;;;;;5007210;28;20504;-84
2022/07/17 06:25:43;;;;;;;4.80;0.77;;;16.80;99.90;;;;;;4992469;28;20037;-84
2022/07/17 06:28:09;;;;;;;4.22;0.88;;;17.40;99.90;;;;;;5013332;28;20038;-83
2022/07/17 06:30:34;;;;;;;2.78;0.55;;;17.90;99.90;;;;;;5003049;28;20139;-83
2022/07/17 06:33:00;;;;;;;3.70;0.68;;;18.30;99.90;;;;;;5027771;28;20080;-82
2022/07/17 06:35:26;;;;;;;1.35;0.55;;;18.80;99.90;;;;;;5011211;28;20451;-81
2022/07/17 06:37:51;;;;;;;4.78;0.55;;;19.20;99.90;;;;;;5009804;28;20045;-83
2022/07/17 06:40:17;;;;;;;3.75;0.50;;;19.60;99.90;;;;;;5012862;28;20046;-83
2022/07/17 06:42:42;;;;;;;2.85;0.30;;;20.00;99.90;;;;;;4996882;28;20037;-83
2022/07/17 06:45:09;;;;;;;6.00;0.88;;;20.20;99.90;;;;;;5026001;28;20041;-80
2022/07/17 06:47:36;;;;;;;4.60;0.73;;;20.60;99.90;;;;;;4997931;28;20288;-82
2022/07/17 06:50:02;;;;;;;3.58;0.50;;;20.90;99.90;;;;;;4999244;28;20041;-80
2022/07/17 06:52:28;;;;;;;5.05;0.70;;;21.20;99.90;;;;;;5017753;28;20050;-77
2022/07/17 06:54:54;;;;;;;4.30;0.95;;;21.40;99.90;;;;;;5013120;28;20037;-82
2022/07/17 06:57:19;;;;;;;2.30;0.50;;;21.60;99.90;;;;;;5008429;28;20186;-82
2022/07/17 06:59:45;;;;;;;3.85;0.40;;;21.70;99.90;;;;;;5025710;28;20037;-81
2022/07/17 07:02:10;;;;;;;2.08;0.57;;;21.80;99.90;;;;;;5014020;28;20053;-80
2022/07/17 07:04:36;;;;;;;4.07;0.85;;;21.90;99.90;;;;;;5021505;28;20062;-80
2022/07/17 07:07:01;;;;;;;1.70;0.50;;;22.00;99.90;;;;;;5025523;28;20068;-81
2022/07/17 07:09:27;;;;;;;4.45;0.63;;;22.10;99.90;;;;;;5010958;28;20140;-80
2022/07/17 07:11:53;;;;;;;2.38;0.50;;;22.30;99.90;;;;;;5009442;28;20474;-80
2022/07/17 07:14:18;;;;;;;3.97;0.60;;;22.50;99.90;;;;;;5007143;28;20050;-82
2022/07/17 07:16:44;;;;;;;5.10;1.20;;;22.70;99.90;;;;;;5027097;28;20049;-82
2022/07/17 07:19:09;;;;;;;3.70;0.75;;;22.80;99.90;;;;;;5017598;28;20132;-81
2022/07/17 07:21:35;;;;;;;2.28;0.50;;;22.70;99.90;;;;;;5023539;28;20097;-78
2022/07/17 07:24:00;;;;;;;6.20;0.65;;;22.60;99.90;;;;;;5011399;28;20500;-81
2022/07/17 07:26:27;;;;;;;4.22;0.68;;;22.30;99.90;;;;;;5008164;28;20124;-80
2022/07/17 07:28:53;;;;;;;4.13;0.60;;;22.10;99.90;;;;;;5009145;28;20124;-80
2022/07/17 07:31:18;;;;;;;5.28;1.05;;;21.90;99.90;;;;;;5024239;28;20136;-79
2022/07/17 07:33:44;;;;;;;4.18;0.68;;;21.60;99.90;;;;;;5009788;28;20152;-81
2022/07/17 07:36:10;;;;;;;4.00;0.88;;;21.50;99.90;;;;;;5005625;28;20041;-80
2022/07/17 07:38:36;;;;;;;4.18;0.70;;;21.30;99.90;;;;;;5009795;28;20041;-80
2022/07/17 07:41:02;;;;;;;5.38;0.73;;;21.30;99.90;;;;;;5007025;28;20519;-78
2022/07/17 07:43:27;;;;;;;3.45;0.57;;;21.10;99.90;;;;;;5008430;28;20049;-77
2022/07/17 07:45:53;;;;;;;5.07;0.90;;;21.00;99.90;;;;;;5009709;28;20268;-78
2022/07/17 07:48:19;;;;;;;6.28;0.63;;;20.80;99.90;;;;;;5008640;28;20053;-79
2022/07/17 07:50:44;;;;;;;4.35;0.60;;;20.80;99.90;;;;;;5012704;28;20045;-79
2022/07/17 07:53:10;;;;;;;3.70;0.57;;;20.60;99.90;;;;;;5013241;28;20033;-78
2022/07/17 07:55:35;;;;;;;5.10;0.70;;;20.50;99.90;;;;;;5010604;28;20045;-77
2022/07/17 07:58:10;;;;;;;4.68;0.68;;;20.70;99.90;;;;;;5010840;28;20033;-79
2022/07/17 08:00:36;;;;;;;2.50;0.57;;;21.00;99.90;;;;;;5024002;28;20044;-79
2022/07/17 08:03:03;;;;;;;4.22;0.68;;;21.50;99.90;;;;;;5018395;28;20044;-79
2022/07/17 08:05:29;;;;;;;2.92;0.50;;;21.90;99.90;;;;;;4989242;28;20481;-78
2022/07/17 08:07:55;;;;;;;2.63;0.88;;;22.20;99.90;;;;;;5011476;28;20052;-76
2022/07/17 08:10:21;;;;;;;4.85;1.00;;;22.50;99.90;;;;;;5007421;28;20058;-79
2022/07/17 08:12:46;;;;;;;4.15;0.75;;;22.60;99.90;;;;;;5019320;28;20068;-75
2022/07/17 08:15:14;;;;;;;3.28;0.43;;;22.70;99.90;;;;;;5007739;28;20124;-77
2022/07/17 08:17:40;;;;;;;2.55;0.40;;;23.00;99.50;;;;;;5023979;28;20056;-78
2022/07/17 08:20:07;;;;;;;7.32;1.02;;;23.20;99.50;;;;;;5009812;28;20045;-78
2022/07/17 08:22:32;;;;;;;2.88;0.65;;;23.40;99.70;;;;;;4993838;28;20056;-78
2022/07/17 08:24:58;;;;;;;3.20;1.25;;;23.40;99.10;;;;;;5007897;28;20049;-77
2022/07/17 08:27:24;;;;;;;4.78;1.02;;;23.40;99.00;;;;;;5015378;28;20045;-78
2022/07/17 08:29:49;;;;;;;6.30;0.88;;;23.40;98.90;;;;;;5008237;28;20048;-79
2022/07/17 08:32:15;;;;;;;2.85;0.43;;;23.30;98.90;;;;;;5009407;28;20049;-78
2022/07/17 08:34:41;;;;;;;2.20;0.60;;;23.10;98.90;;;;;;5013302;28;20042;-79
2022/07/17 08:37:06;;;;;;;4.15;1.50;;;22.60;99.40;;;;;;5010696;28;20042;-78
2022/07/17 08:39:32;;;;;;;4.35;0.52;;;22.70;99.90;;;;;;5025934;28;20030;-79
2022/07/17 08:41:57;;;;;;;4.35;0.60;;;22.60;99.90;;;;;;5025689;28;20053;-80
2022/07/17 08:44:23;;;;;;;3.00;0.60;;;22.70;99.50;;;;;;4992209;28;20053;-78
2022/07/17 08:46:50;;;;;;;4.35;0.60;;;22.90;99.70;;;;;;5014850;28;20068;-76
2022/07/17 08:49:22;;;;;;;2.97;0.57;;;23.10;99.30;;;;;;5022002;28;20041;-76
2022/07/17 08:51:48;;;;;;;4.93;1.05;;;23.30;99.30;;;;;;5026817;28;20041;-79
2022/07/17 08:54:14;;;;;;;3.75;0.65;;;23.50;99.30;;;;;;5005937;28;20042;-80
2022/07/17 08:56:40;;;;;;;6.85;0.93;;;23.60;99.40;;;;;;5008520;28;20681;-79
2022/07/17 08:59:05;;;;;;;2.33;0.50;;;23.90;99.30;;;;;;5008549;28;20041;-78
2022/07/17 09:01:31;;;;;;;5.40;0.60;;;23.60;98.20;;;;;;5013108;28;20049;-79
2022/07/17 09:03:59;;;;;;;3.40;0.90;;;23.40;98.40;;;;;;5008970;28;20092;-78
2022/07/17 09:06:26;;;;;;;6.00;0.88;;;23.30;98.60;;;;;;5006712;28;20487;-79
2022/07/17 09:09:09;;;;;;;2.10;0.43;;;23.60;99.80;;;;;;5018647;28;20117;-78
2022/07/17 09:11:46;;;;;;;5.15;0.90;;;23.80;99.50;;;;;;5007211;28;20365;-79
2022/07/17 09:14:11;;;;;;;2.47;0.45;;;23.60;98.60;;;;;;5024151;28;20051;-79
2022/07/17 09:16:59;;;;;;;5.20;0.88;;;23.50;98.90;;;;;;5009425;28;20045;-79
2022/07/17 09:19:36;;;;;;;4.53;0.70;;;23.50;98.20;;;;;;5006215;28;20527;-79
2022/07/17 09:22:10;;;;;;;5.03;0.75;;;23.30;98.20;;;;;;5017169;28;20045;-79
2022/07/17 09:24:40;;;;;;;4.53;0.95;;;23.20;98.70;;;;;;5005422;28;20136;-79
2022/07/17 09:27:05;;;;;;;5.40;1.15;;;23.10;98.90;;;;;;5024732;28;20049;-79
2022/07/17 09:29:31;;;;;;;1.45;0.40;;;23.00;98.90;;;;;;5028203;28;20182;-80
2022/07/17 09:31:56;;;;;;;3.38;0.60;;;23.10;99.10;;;;;;5006473;28;20041;-78
2022/07/17 09:34:23;;;;;;;3.47;0.82;;;23.40;99.50;;;;;;5015467;28;20053;-79
2022/07/17 09:37:00;;;;;;;3.25;0.70;;;23.60;98.40;;;;;;5026043;28;20048;-79
2022/07/17 09:39:39;;;;;;;4.53;0.80;;;23.80;98.90;;;;;;5009600;28;20041;-79
2022/07/17 09:42:05;;;;;;;3.33;0.60;;;23.80;97.80;;;;;;5003188;28;20053;-78
2022/07/17 09:44:31;;;;;;;4.35;0.50;;;23.70;98.20;;;;;;5022974;28;20038;-79
2022/07/17 09:46:57;;;;;;;2.25;0.60;;;23.70;98.20;;;;;;5008786;28;20079;-79
2022/07/17 09:49:26;;;;;;;2.65;0.82;;;23.80;98.30;;;;;;5010831;28;20034;-78
2022/07/17 09:51:53;;;;;;;3.25;0.60;;;23.70;98.10;;;;;;5009788;28;20046;-79
2022/07/17 09:54:21;;;;;;;3.30;0.90;;;23.70;98.30;;;;;;5023788;28;20084;-80
2022/07/17 09:56:50;;;;;;;3.92;0.80;;;23.60;97.90;;;;;;5007285;28;20045;-80
2022/07/17 09:59:17;;;;;;;5.88;0.57;;;23.60;98.10;;;;;;5009694;28;20095;-79
2022/07/17 10:01:44;;;;;;;5.80;0.70;;;23.70;98.30;;;;;;5010052;28;20041;-79
2022/07/17 10:04:10;;;;;;;6.07;0.70;;;23.80;97.80;;;;;;4994447;28;20046;-80
2022/07/17 10:06:36;;;;;;;3.63;0.75;;;23.90;97.90;;;;;;4994496;28;20038;-81
2022/07/17 10:09:04;;;;;;;3.65;0.75;;;24.00;97.30;;;;;;5008460;28;20064;-79
2022/07/17 10:11:37;;;;;;;3.95;0.70;;;24.00;97.10;;;;;;5008168;28;20047;-81
2022/07/17 10:14:08;;;;;;;2.13;0.60;;;23.90;97.00;;;;;;5008699;28;20048;-80
2022/07/17 10:16:36;;;;;;;4.32;0.55;;;24.00;96.60;;;;;;5011504;28;20038;-80
2022/07/17 10:19:02;;;;;;;1.48;0.73;;;24.00;98.10;;;;;;5011725;28;20389;-79
2022/07/17 10:21:30;;;;;;;2.40;0.75;;;24.20;98.20;;;;;;5024907;28;20048;-79
2022/07/17 10:23:55;;;;;;;2.90;0.82;;;24.50;97.50;;;;;;5025086;28;20113;-81
2022/07/17 10:26:36;;;;;;;3.67;0.63;;;24.70;96.30;;;;;;5023412;28;20041;-81
2022/07/17 10:29:06;;;;;;;3.38;0.75;;;24.90;96.70;;;;;;5027410;28;20050;-80
2022/07/17 10:31:32;;;;;;;2.60;0.60;;;24.80;96.20;;;;;;4989654;28;20217;-79
2022/07/17 10:34:04;;;;;;;1.67;0.68;;;24.80;96.60;;;;;;5004940;28;20101;-80
2022/07/17 10:36:40;;;;;;;4.85;1.05;;;24.90;96.50;;;;;;5004800;28;20168;-79
2022/07/17 10:39:47;;;;;;;6.20;1.02;;;25.10;95.50;;;;;;5008200;28;20041;-80
2022/07/17 10:42:13;;;;;;;4.68;0.70;;;25.30;95.50;;;;;;4977279;28;20046;-77
2022/07/17 10:44:39;;;;;;;3.88;0.75;;;25.20;96.00;;;;;;5024689;28;20083;-80
2022/07/17 10:47:04;;;;;;;2.15;0.70;;;25.10;96.20;;;;;;5020961;28;20038;-79
2022/07/17 10:49:30;;;;;;;1.50;0.50;;;25.10;96.10;;;;;;5000709;28;20042;-82
2022/07/17 10:51:55;;;;;;;3.33;0.60;;;25.00;96.30;;;;;;5012072;28;20049;-83
2022/07/17 10:54:32;;;;;;;2.92;0.75;;;25.10;96.30;;;;;;5021210;28;20037;-82
2022/07/17 10:57:01;;;;;;;1.52;0.50;;;25.10;95.90;;;;;;5018220;28;20049;-82
2022/07/17 10:59:26;;;;;;;3.15;0.80;;;24.90;96.00;;;;;;5003267;28;20044;-83
2022/07/17 11:01:58;;;;;;;3.40;0.70;;;24.60;95.90;;;;;;4999544;28;20481;-84
2022/07/17 11:04:24;;;;;;;3.22;1.10;;;24.70;97.00;;;;;;5020070;28;20045;-85
2022/07/17 11:06:49;;;;;;;5.45;0.85;;;24.50;95.90;;;;;;4999340;28;20101;-84
2022/07/17 11:09:15;;;;;;;2.03;0.60;;;24.50;97.10;;;;;;5001895;28;20183;-84
2022/07/17 11:11:59;;;;;;;3.17;0.60;;;24.50;96.20;;;;;;5022668;28;20041;-83
2022/07/17 11:14:26;;;;;;;3.67;0.65;;;24.50;97.10;;;;;;5005432;28;20073;-84
2022/07/17 11:16:55;;;;;;;2.15;0.52;;;24.60;96.00;;;;;;4990705;28;20445;-82
2022/07/17 11:19:24;;;;;;;3.15;0.70;;;24.50;95.70;;;;;;5004752;28;20076;-82
2022/07/17 11:21:50;;;;;;;4.57;0.60;;;24.20;96.30;;;;;;5015558;28;20500;-83
2022/07/17 11:24:15;;;;;;;3.70;1.27;;;24.10;96.50;;;;;;5023226;28;20050;-82
2022/07/17 11:26:43;;;;;;;3.38;0.90;;;24.10;96.80;;;;;;5009533;28;20385;-80
2022/07/17 11:29:09;;;;;;;2.92;0.65;;;24.20;97.60;;;;;;5006640;28;20050;-82
2022/07/17 11:31:35;;;;;;;5.05;0.82;;;23.90;96.20;;;;;;5013200;28;20052;-82
2022/07/17 11:34:08;;;;;;;3.42;0.65;;;23.80;96.50;;;;;;5003994;28;20741;-81
2022/07/17 11:36:36;;;;;;;3.08;0.80;;;23.90;96.50;;;;;;4989182;28;20034;-81
2022/07/17 11:39:18;;;;;;;2.22;0.65;;;23.90;96.70;;;;;;5018158;28;20067;-80
2022/07/17 11:41:52;;;;;;;2.55;0.70;;;24.00;97.20;;;;;;5020623;28;20041;-79
2022/07/17 11:44:24;;;;;;;2.35;0.63;;;23.90;95.80;;;;;;5007225;28;20543;-80
2022/07/17 11:46:51;;;;;;;2.80;0.80;;;23.90;96.80;;;;;;5006374;28;20448;-79
2022/07/17 11:49:25;;;;;;;2.10;0.63;;;24.10;97.20;;;;;;5009305;28;20084;-82
2022/07/17 11:51:51;;;;;;;3.37;0.67;;;24.10;98.10;;;;;;5025802;28;20041;-82
2022/07/17 11:54:16;;;;;;;1.90;0.63;;;24.30;97.70;;;;;;5011034;28;20044;-82
2022/07/17 11:56:51;;;;;;;2.95;1.05;;;24.30;97.70;;;;;;5012309;28;20128;-81
2022/07/17 11:59:25;;;;;;;4.07;0.95;;;24.30;97.20;;;;;;5008602;28;20041;-80
2022/07/17 12:01:51;;;;;;;2.42;0.80;;;24.20;96.80;;;;;;5013761;28;20041;-79
2022/07/17 12:04:16;;;;;;;2.45;0.80;;;24.40;96.80;;;;;;5006511;28;20092;-82
2022/07/17 12:06:42;;;;;;;3.03;0.80;;;24.50;96.60;;;;;;5016355;28;20072;-81
2022/07/17 12:09:08;;;;;;;5.15;1.10;;;24.50;96.50;;;;;;5007535;28;20496;-82
2022/07/17 12:11:45;;;;;;;3.50;1.20;;;24.20;96.00;;;;;;5006643;28;20038;-82
2022/07/17 12:14:11;;;;;;;2.28;0.82;;;24.40;97.70;;;;;;5026236;28;20254;-82
2022/07/17 12:16:37;;;;;;;4.80;0.88;;;24.30;96.30;;;;;;5006147;28;20037;-82
2022/07/17 12:19:09;;;;;;;2.65;0.90;;;24.40;96.40;;;;;;4988295;28;20038;-82
2022/07/17 12:21:54;;;;;;;1.85;1.00;;;24.50;96.30;;;;;;5009883;28;20416;-83
2022/07/17 12:24:48;;;;;;;1.63;0.80;;;24.50;96.90;;;;;;5001202;28;20064;-84
2022/07/17 12:27:16;;;;;;;2.70;0.80;;;24.50;96.90;;;;;;5003680;28;20067;-83
2022/07/17 12:29:44;;;;;;;2.55;0.73;;;24.40;97.00;;;;;;5001083;28;20744;-83
2022/07/17 12:32:15;;;;;;;3.13;1.10;;;24.30;96.80;;;;;;5006435;28;20044;-83
2022/07/17 12:34:46;;;;;;;1.80;0.80;;;24.30;97.20;;;;;;5021336;28;20048;-83
2022/07/17 12:37:20;;;;;;;1.90;0.93;;;24.40;97.00;;;;;;5003900;28;20492;-82
2022/07/17 12:39:47;;;;;;;3.85;1.20;;;24.50;95.60;;;;;;5001842;28;20088;-84
2022/07/17 12:42:13;;;;;;;2.90;1.15;;;24.70;96.00;;;;;;5023094;28;20408;-82
2022/07/17 12:44:39;;;;;;;3.00;1.08;;;24.90;94.90;;;;;;5005464;28;20044;-82
2022/07/17 12:47:04;;;;;;;2.00;1.00;;;24.90;95.10;;;;;;5006336;28;20084;-83